Terminal Aerodrome Forecast
Issued by NWS Atlanta, GA

Home | Current Version | Previous Version | Text Only | Print | Product List | Glossary On
Versions: 1 2 3 4 5 6 7 8 9 10 11 12 13 14 15 16 17 18 19 20 21 22 23 24 25 26 27 28 29 30 31 32 33 34 35 36 37 38 39 40 41 42 43 44 45
843
FTUS42 KFFC 230520
TAFATL
TAF
KATL 230520Z 2306/2412 23014G25KT P6SM -SHRA SCT009 OVC015
      TEMPO 2307/2311 4SM -SHRA BKN008
     FM231100 30015G25KT P6SM BKN009 OVC050
     FM231500 31020G35KT P6SM BKN015 BKN050
     FM232000 31020G35KT P6SM SCT015 BKN025
     FM240400 31015G25KT P6SM BKN015
     FM240900 31012KT P6SM SCT015=

USA.gov is the U.S. government's official web portal to all federal, state and local government web resources and services.